createdAt,value
2022-07-28T00:00:08.638Z,996.57
2022-07-28T00:00:18.883Z,996.57
2022-07-28T00:00:29.386Z,996.57
2022-07-28T00:00:39.891Z,996.57
2022-07-28T00:00:50.421Z,996.57
2022-07-28T00:01:00.912Z,996.57
2022-07-28T00:01:11.429Z,996.57
2022-07-28T00:01:21.941Z,996.57
2022-07-28T00:01:32.583Z,996.57
2022-07-28T00:01:43.063Z,996.57
2022-07-28T00:01:53.540Z,996.57
2022-07-28T00:02:04.085Z,996.57
2022-07-28T00:02:14.527Z,996.57
2022-07-28T00:02:25.143Z,996.57
2022-07-28T00:02:35.624Z,996.57
2022-07-28T00:02:46.151Z,996.57
2022-07-28T00:02:56.655Z,996.57
2022-07-28T00:03:07.212Z,996.57
2022-07-28T00:03:17.695Z,996.57
2022-07-28T00:03:28.233Z,996.57
2022-07-28T00:03:38.620Z,996.57
2022-07-28T00:03:49.306Z,996.57
2022-07-28T00:03:59.650Z,996.57
2022-07-28T00:04:10.393Z,996.57
2022-07-28T00:04:20.673Z,996.57
2022-07-28T00:04:31.184Z,996.57
2022-07-28T00:04:41.704Z,996.57
2022-07-28T00:04:52.218Z,996.57
2022-07-28T00:05:02.737Z,996.57
2022-07-28T00:05:13.240Z,996.57
2022-07-28T00:05:23.755Z,996.57
2022-07-28T00:05:34.515Z,996.57
2022-07-28T00:05:44.787Z,996.57
2022-07-28T00:05:55.294Z,996.57
2022-07-28T00:06:05.806Z,996.57
2022-07-28T00:06:16.323Z,996.57
2022-07-28T00:06:26.836Z,996.57
2022-07-28T00:06:37.347Z,996.57
2022-07-28T00:06:47.864Z,996.57
2022-07-28T00:06:58.375Z,996.58
2022-07-28T00:07:08.894Z,996.58
2022-07-28T00:07:19.402Z,996.58
2022-07-28T00:07:29.959Z,996.58
2022-07-28T00:07:40.431Z,996.58
2022-07-28T00:07:50.949Z,996.58
2022-07-28T00:08:01.462Z,996.59
2022-07-28T00:08:11.978Z,996.59
2022-07-28T00:08:22.491Z,996.58
2022-07-28T00:08:33.003Z,996.59
2022-07-28T00:08:43.517Z,996.59
2022-07-28T00:08:54.039Z,996.59
2022-07-28T00:09:04.566Z,996.59
2022-07-28T00:09:15.060Z,996.60
2022-07-28T00:09:25.572Z,996.60
2022-07-28T00:09:36.090Z,996.60
2022-07-28T00:09:46.602Z,996.60
2022-07-28T00:10:00.576Z,996.60
2022-07-28T00:10:07.627Z,996.60
2022-07-28T00:10:18.145Z,996.60
2022-07-28T00:10:28.661Z,996.60
2022-07-28T00:10:39.172Z,996.60
2022-07-28T00:10:49.683Z,996.60
2022-07-28T00:11:00.202Z,996.60
2022-07-28T00:11:10.715Z,996.60
2022-07-28T00:11:21.233Z,996.60
2022-07-28T00:11:31.743Z,996.60
2022-07-28T00:11:54.138Z,996.60
2022-07-28T00:11:54.896Z,996.60
2022-07-28T00:12:03.292Z,996.60
2022-07-28T00:12:13.800Z,996.60
2022-07-28T00:12:24.321Z,996.60
2022-07-28T00:12:34.829Z,996.60
2022-07-28T00:12:45.373Z,996.60
2022-07-28T00:12:55.878Z,996.60
2022-07-28T00:13:06.843Z,996.61
2022-07-28T00:13:16.887Z,996.60
2022-07-28T00:13:27.393Z,996.61
2022-07-28T00:13:37.906Z,996.61
2022-07-28T00:13:48.424Z,996.61
2022-07-28T00:13:58.933Z,996.61
2022-07-28T00:14:09.570Z,996.61
2022-07-28T00:14:19.975Z,996.61
2022-07-28T00:14:30.483Z,996.61
2022-07-28T00:14:40.989Z,996.61
2022-07-28T00:14:51.513Z,996.61
2022-07-28T00:15:02.024Z,996.61
2022-07-28T00:15:12.543Z,996.61
2022-07-28T00:15:23.047Z,996.61
2022-07-28T00:15:33.565Z,996.62
2022-07-28T00:15:44.068Z,996.62
2022-07-28T00:15:54.671Z,996.62
2022-07-28T00:16:05.181Z,996.62
2022-07-28T00:16:15.728Z,996.62
2022-07-28T00:16:26.170Z,996.62
2022-07-28T00:16:36.683Z,996.62
2022-07-28T00:16:47.242Z,996.62
2022-07-28T00:16:57.668Z,996.62
2022-07-28T00:17:08.175Z,996.62
2022-07-28T00:17:18.711Z,996.62
2022-07-28T00:17:29.193Z,996.62
2022-07-28T00:17:39.714Z,996.62
2022-07-28T00:17:50.217Z,996.61
2022-07-28T00:18:00.755Z,996.61
2022-07-28T00:18:11.241Z,996.61
2022-07-28T00:18:21.757Z,996.61
2022-07-28T00:18:32.267Z,996.61
2022-07-28T00:18:42.789Z,996.61
2022-07-28T00:18:53.300Z,996.61
2022-07-28T00:19:03.821Z,996.60
2022-07-28T00:19:14.325Z,996.60
2022-07-28T00:19:24.831Z,996.60
2022-07-28T00:19:35.345Z,996.60
2022-07-28T00:19:45.863Z,996.60
2022-07-28T00:19:56.375Z,996.59
2022-07-28T00:20:06.886Z,996.59
2022-07-28T00:20:17.421Z,996.59
2022-07-28T00:20:27.936Z,996.60
2022-07-28T00:20:38.419Z,996.59
2022-07-28T00:20:48.938Z,996.59
2022-07-28T00:20:59.450Z,996.59
2022-07-28T00:21:09.971Z,996.59
2022-07-28T00:21:20.482Z,996.59
2022-07-28T00:21:30.995Z,996.59
2022-07-28T00:21:41.501Z,996.59
2022-07-28T00:21:52.010Z,996.59
2022-07-28T00:22:02.589Z,996.59
2022-07-28T00:22:13.039Z,996.60
2022-07-28T00:22:23.552Z,996.59
2022-07-28T00:22:34.084Z,996.60
2022-07-28T00:22:44.577Z,996.60
2022-07-28T00:22:55.107Z,996.60
2022-07-28T00:23:05.599Z,996.60
2022-07-28T00:23:16.124Z,996.60
2022-07-28T00:23:32.523Z,996.60
2022-07-28T00:23:39.467Z,996.61
2022-07-28T00:23:47.663Z,996.61
2022-07-28T00:23:58.176Z,996.61
2022-07-28T00:24:08.696Z,996.61
2022-07-28T00:24:19.202Z,996.61
2022-07-28T00:24:29.716Z,996.61
2022-07-28T00:24:40.227Z,996.62
2022-07-28T00:24:50.752Z,996.62
2022-07-28T00:25:01.258Z,996.62
2022-07-28T00:25:11.771Z,996.62
2022-07-28T00:25:22.315Z,996.62
2022-07-28T00:25:32.806Z,996.62
2022-07-28T00:25:43.311Z,996.62
2022-07-28T00:25:53.821Z,996.62
2022-07-28T00:26:04.341Z,996.61
2022-07-28T00:26:14.856Z,996.62
2022-07-28T00:26:25.368Z,996.61
2022-07-28T00:26:35.879Z,996.62
2022-07-28T00:26:46.962Z,996.61
2022-07-28T00:26:56.911Z,996.61
2022-07-28T00:27:07.427Z,996.61
2022-07-28T00:27:19.425Z,996.61
2022-07-28T00:27:28.453Z,996.61
2022-07-28T00:27:38.959Z,996.61
2022-07-28T00:27:49.479Z,996.60
2022-07-28T00:28:00.017Z,996.60
2022-07-28T00:28:10.505Z,996.60
2022-07-28T00:28:21.011Z,996.60
2022-07-28T00:28:31.529Z,996.60
2022-07-28T00:28:42.039Z,996.60
2022-07-28T00:28:52.555Z,996.60
2022-07-28T00:29:03.067Z,996.60
2022-07-28T00:29:13.582Z,996.60
2022-07-28T00:29:24.104Z,996.60
2022-07-28T00:29:49.987Z,996.60
2022-07-28T00:29:50.403Z,996.60
2022-07-28T00:29:55.638Z,996.60
2022-07-28T00:30:06.146Z,996.60
2022-07-28T00:30:16.659Z,996.60
2022-07-28T00:30:27.170Z,996.60
2022-07-28T00:30:37.689Z,996.59
2022-07-28T00:30:48.297Z,996.60
2022-07-28T00:30:58.743Z,996.60
2022-07-28T00:31:11.948Z,996.59
2022-07-28T00:31:19.835Z,996.59
2022-07-28T00:31:30.366Z,996.59
2022-07-28T00:31:40.858Z,996.59
2022-07-28T00:31:51.436Z,996.59
2022-07-28T00:32:01.876Z,996.58
2022-07-28T00:32:12.320Z,996.58
2022-07-28T00:32:22.858Z,996.58
2022-07-28T00:32:33.337Z,996.58
2022-07-28T00:32:43.850Z,996.58
2022-07-28T00:32:54.365Z,996.58
2022-07-28T00:33:04.873Z,996.58
2022-07-28T00:33:15.389Z,996.57
2022-07-28T00:33:25.900Z,996.58
2022-07-28T00:33:36.411Z,996.57
2022-07-28T00:33:46.928Z,996.57
2022-07-28T00:33:57.443Z,996.57
2022-07-28T00:34:07.956Z,996.57
2022-07-28T00:34:18.471Z,996.57
2022-07-28T00:34:28.979Z,996.57
2022-07-28T00:34:39.493Z,996.57
2022-07-28T00:34:50.004Z,996.57
2022-07-28T00:35:00.522Z,996.58
2022-07-28T00:35:11.036Z,996.57
2022-07-28T00:35:30.491Z,996.57
2022-07-28T00:35:33.055Z,996.57
2022-07-28T00:35:42.575Z,996.58
2022-07-28T00:35:54.112Z,996.57
2022-07-28T00:36:03.592Z,996.57
2022-07-28T00:36:14.102Z,996.57
2022-07-28T00:36:25.672Z,996.57
2022-07-28T00:36:35.137Z,996.58
2022-07-28T00:36:45.641Z,996.58
2022-07-28T00:36:56.157Z,996.57
2022-07-28T00:37:06.904Z,996.58
2022-07-28T00:37:17.181Z,996.58
2022-07-28T00:37:27.693Z,996.57
2022-07-28T00:37:39.770Z,996.58
2022-07-28T00:37:49.143Z,996.58
2022-07-28T00:37:59.231Z,996.58
2022-07-28T00:38:09.741Z,996.57
2022-07-28T00:38:20.254Z,996.57
2022-07-28T00:38:30.768Z,996.57
2022-07-28T00:38:44.433Z,996.57
2022-07-28T00:38:52.797Z,996.57
2022-07-28T00:39:02.304Z,996.57
2022-07-28T00:39:12.818Z,996.56
2022-07-28T00:39:23.338Z,996.56
2022-07-28T00:39:33.856Z,996.56
2022-07-28T00:39:44.360Z,996.56
2022-07-28T00:39:54.873Z,996.55
2022-07-28T00:40:05.383Z,996.55
2022-07-28T00:40:15.895Z,996.55
2022-07-28T00:40:26.406Z,996.54
2022-07-28T00:40:36.928Z,996.54
2022-07-28T00:40:47.434Z,996.53
2022-07-28T00:40:57.945Z,996.53
2022-07-28T00:41:08.461Z,996.53
2022-07-28T00:41:18.976Z,996.52
2022-07-28T00:41:29.489Z,996.52
2022-07-28T00:41:39.998Z,996.52
2022-07-28T00:41:50.510Z,996.51
2022-07-28T00:42:01.025Z,996.51
2022-07-28T00:42:11.540Z,996.50
2022-07-28T00:42:22.051Z,996.49
2022-07-28T00:42:32.567Z,996.49
2022-07-28T00:42:43.084Z,996.49
2022-07-28T00:42:53.590Z,996.48
2022-07-28T00:43:04.110Z,996.48
2022-07-28T00:43:14.619Z,996.48
2022-07-28T00:43:25.132Z,996.47
2022-07-28T00:43:35.653Z,996.47
2022-07-28T00:43:46.191Z,996.47
2022-07-28T00:43:56.680Z,996.46
2022-07-28T00:44:07.193Z,996.46
2022-07-28T00:44:17.707Z,996.46
2022-07-28T00:44:28.222Z,996.46
2022-07-28T00:44:38.734Z,996.45
2022-07-28T00:44:49.260Z,996.45
2022-07-28T00:44:59.762Z,996.44
2022-07-28T00:45:10.280Z,996.44
2022-07-28T00:45:20.791Z,996.44
2022-07-28T00:45:31.302Z,996.44
2022-07-28T00:45:41.815Z,996.43
2022-07-28T00:45:52.328Z,996.43
2022-07-28T00:46:03.002Z,996.43
2022-07-28T00:46:13.393Z,996.42
2022-07-28T00:46:23.928Z,996.42
2022-07-28T00:46:34.451Z,996.42
2022-07-28T00:46:44.943Z,996.41
2022-07-28T00:46:55.506Z,996.41
2022-07-28T00:47:06.044Z,996.41
2022-07-28T00:47:16.441Z,996.40
2022-07-28T00:47:26.947Z,996.40
2022-07-28T00:47:38.460Z,996.40
2022-07-28T00:47:47.974Z,996.39
2022-07-28T00:47:58.520Z,996.39
2022-07-28T00:48:09.013Z,996.39
2022-07-28T00:48:19.522Z,996.39
2022-07-28T00:48:30.032Z,996.39
2022-07-28T00:48:40.691Z,996.39
2022-07-28T00:48:51.114Z,996.39
2022-07-28T00:49:01.647Z,996.39
2022-07-28T00:49:12.164Z,996.39
2022-07-28T00:49:22.706Z,996.39
2022-07-28T00:49:33.108Z,996.39
2022-07-28T00:49:43.624Z,996.38
2022-07-28T00:49:54.135Z,996.39
2022-07-28T00:50:04.646Z,996.38
2022-07-28T00:50:15.171Z,996.38
2022-07-28T00:50:25.695Z,996.39
2022-07-28T00:50:36.207Z,996.39
2022-07-28T00:50:46.700Z,996.38
2022-07-28T00:50:57.209Z,996.39
2022-07-28T00:51:07.728Z,996.38
2022-07-28T00:51:18.233Z,996.39
2022-07-28T00:51:28.762Z,996.39
2022-07-28T00:51:39.263Z,996.39
2022-07-28T00:51:49.775Z,996.39
2022-07-28T00:52:00.287Z,996.39
2022-07-28T00:52:10.804Z,996.39
2022-07-28T00:52:21.329Z,996.39
2022-07-28T00:52:31.823Z,996.39
2022-07-28T00:52:42.338Z,996.39
2022-07-28T00:52:52.855Z,996.39
2022-07-28T00:53:03.363Z,996.39
2022-07-28T00:53:13.875Z,996.39
2022-07-28T00:53:24.394Z,996.39
2022-07-28T00:53:34.902Z,996.39
2022-07-28T00:53:45.416Z,996.39
2022-07-28T00:53:55.928Z,996.39
2022-07-28T00:54:06.438Z,996.39
2022-07-28T00:54:16.948Z,996.39
2022-07-28T00:54:27.459Z,996.39
2022-07-28T00:54:37.978Z,996.39
2022-07-28T00:54:48.496Z,996.39
2022-07-28T00:54:58.997Z,996.39
2022-07-28T00:55:09.533Z,996.39
2022-07-28T00:55:20.030Z,996.39
2022-07-28T00:55:30.543Z,996.39
2022-07-28T00:56:03.574Z,996.39
2022-07-28T00:56:05.559Z,996.39
2022-07-28T00:56:06.277Z,996.39
2022-07-28T00:56:12.586Z,996.38
2022-07-28T00:56:23.100Z,996.38
2022-07-28T00:56:33.610Z,996.38
2022-07-28T00:56:44.122Z,996.38
2022-07-28T00:56:54.639Z,996.38
2022-07-28T00:57:05.147Z,996.37
2022-07-28T00:57:15.660Z,996.37
2022-07-28T00:57:26.179Z,996.37
2022-07-28T00:57:36.682Z,996.37
2022-07-28T00:57:47.215Z,996.37
2022-07-28T00:57:57.709Z,996.37
2022-07-28T00:58:08.236Z,996.36
2022-07-28T00:58:18.733Z,996.36
2022-07-28T00:58:29.241Z,996.36
2022-07-28T00:58:39.760Z,996.36
2022-07-28T00:58:50.268Z,996.36
2022-07-28T00:59:00.780Z,996.35
2022-07-28T00:59:11.293Z,996.36
2022-07-28T00:59:21.832Z,996.35
2022-07-28T00:59:33.906Z,996.35
2022-07-28T00:59:42.829Z,996.35
2022-07-28T00:59:53.346Z,996.35
2022-07-28T01:00:03.861Z,996.35
2022-07-28T01:00:14.371Z,996.34
2022-07-28T01:00:24.878Z,996.34
2022-07-28T01:00:35.393Z,996.34
2022-07-28T01:00:45.899Z,996.34
2022-07-28T01:00:56.410Z,996.34
2022-07-28T01:01:06.925Z,996.33
2022-07-28T01:01:17.451Z,996.33
2022-07-28T01:01:28.015Z,996.33
2022-07-28T01:01:38.635Z,996.33
2022-07-28T01:01:49.202Z,996.32
2022-07-28T01:01:59.608Z,996.32
2022-07-28T01:02:10.118Z,996.32
2022-07-28T01:02:20.691Z,996.32
2022-07-28T01:02:31.192Z,996.32
2022-07-28T01:02:41.648Z,996.32
2022-07-28T01:02:52.185Z,996.32
2022-07-28T01:03:02.625Z,996.32
2022-07-28T01:03:13.119Z,996.32
2022-07-28T01:03:23.575Z,996.33
2022-07-28T01:03:34.088Z,996.32
2022-07-28T01:03:44.615Z,996.32
2022-07-28T01:03:55.108Z,996.33
2022-07-28T01:04:05.620Z,996.33
2022-07-28T01:04:16.509Z,996.33
2022-07-28T01:04:26.640Z,996.33
2022-07-28T01:04:37.153Z,996.33
2022-07-28T01:04:47.665Z,996.34
2022-07-28T01:04:58.205Z,996.34
2022-07-28T01:05:08.699Z,996.34
2022-07-28T01:05:19.198Z,996.34
2022-07-28T01:05:43.234Z,996.34
2022-07-28T01:05:44.198Z,996.34
2022-07-28T01:05:50.732Z,996.34
2022-07-28T01:06:01.248Z,996.34
2022-07-28T01:06:11.759Z,996.34
2022-07-28T01:06:22.276Z,996.34
2022-07-28T01:06:32.786Z,996.34
2022-07-28T01:06:43.307Z,996.34
2022-07-28T01:06:53.814Z,996.34
2022-07-28T01:07:04.326Z,996.34
2022-07-28T01:07:14.836Z,996.34
2022-07-28T01:07:25.352Z,996.34
2022-07-28T01:07:35.862Z,996.34
2022-07-28T01:07:46.381Z,996.34
2022-07-28T01:07:56.890Z,996.33
2022-07-28T01:08:07.405Z,996.34
2022-07-28T01:08:17.921Z,996.33
2022-07-28T01:08:28.429Z,996.33
2022-07-28T01:08:38.947Z,996.33
2022-07-28T01:08:49.460Z,996.34
2022-07-28T01:08:59.983Z,996.33
2022-07-28T01:09:10.480Z,996.33
2022-07-28T01:09:20.988Z,996.33
2022-07-28T01:09:31.510Z,996.33
2022-07-28T01:09:42.028Z,996.33
2022-07-28T01:09:52.535Z,996.33
2022-07-28T01:10:03.048Z,996.32
2022-07-28T01:10:13.566Z,996.32
2022-07-28T01:10:24.097Z,996.33
2022-07-28T01:10:34.585Z,996.33
2022-07-28T01:10:45.098Z,996.32
2022-07-28T01:10:55.616Z,996.33
2022-07-28T01:11:06.129Z,996.33
2022-07-28T01:11:16.641Z,996.33
2022-07-28T01:11:27.149Z,996.33
2022-07-28T01:11:42.577Z,996.33
2022-07-28T01:11:49.170Z,996.33
2022-07-28T01:11:58.683Z,996.33
2022-07-28T01:12:09.192Z,996.33
2022-07-28T01:12:19.716Z,996.33
2022-07-28T01:12:30.219Z,996.34
2022-07-28T01:12:40.739Z,996.35
2022-07-28T01:12:51.247Z,996.35
2022-07-28T01:13:01.763Z,996.35
2022-07-28T01:13:12.272Z,996.35
2022-07-28T01:13:22.784Z,996.36
2022-07-28T01:13:33.368Z,996.36
2022-07-28T01:13:43.820Z,996.37
2022-07-28T01:13:54.321Z,996.37
2022-07-28T01:14:04.837Z,996.37
2022-07-28T01:14:15.825Z,996.38
2022-07-28T01:14:25.864Z,996.38
2022-07-28T01:14:36.375Z,996.38
2022-07-28T01:14:46.897Z,996.39
2022-07-28T01:14:57.405Z,996.39
2022-07-28T01:15:07.912Z,996.39
2022-07-28T01:15:18.434Z,996.39
2022-07-28T01:15:28.947Z,996.40
2022-07-28T01:15:39.483Z,996.40
2022-07-28T01:15:50.046Z,996.40
2022-07-28T01:16:00.584Z,996.40
2022-07-28T01:16:11.117Z,996.40
2022-07-28T01:16:23.580Z,996.40
2022-07-28T01:16:32.144Z,996.40
2022-07-28T01:16:42.530Z,996.40
2022-07-28T01:16:53.047Z,996.40
2022-07-28T01:17:03.563Z,996.41
2022-07-28T01:17:14.075Z,996.40
2022-07-28T01:17:24.588Z,996.40
2022-07-28T01:17:35.103Z,996.40
2022-07-28T01:17:45.619Z,996.40
2022-07-28T01:17:56.156Z,996.40
2022-07-28T01:18:06.657Z,996.40
2022-07-28T01:18:17.159Z,996.40
2022-07-28T01:18:27.673Z,996.40
2022-07-28T01:18:38.183Z,996.40
2022-07-28T01:18:48.699Z,996.40
2022-07-28T01:18:59.209Z,996.39
2022-07-28T01:19:09.726Z,996.40
2022-07-28T01:19:20.236Z,996.40
2022-07-28T01:19:30.756Z,996.40
2022-07-28T01:19:41.312Z,996.40
2022-07-28T01:19:51.783Z,996.41
2022-07-28T01:20:02.301Z,996.41
2022-07-28T01:20:12.805Z,996.41
2022-07-28T01:20:23.315Z,996.41
2022-07-28T01:20:33.829Z,996.41
2022-07-28T01:20:44.343Z,996.41
2022-07-28T01:20:54.878Z,996.41
2022-07-28T01:21:05.366Z,996.41
2022-07-28T01:21:15.880Z,996.41
2022-07-28T01:21:26.394Z,996.41
2022-07-28T01:21:36.907Z,996.41
2022-07-28T01:21:47.420Z,996.41
2022-07-28T01:21:57.934Z,996.41
2022-07-28T01:22:08.439Z,996.41
2022-07-28T01:22:18.953Z,996.41
2022-07-28T01:22:29.470Z,996.41
2022-07-28T01:22:39.984Z,996.41
2022-07-28T01:22:50.493Z,996.41
2022-07-28T01:23:01.009Z,996.41
2022-07-28T01:23:11.512Z,996.41
2022-07-28T01:23:22.028Z,996.41
2022-07-28T01:23:32.554Z,996.40
2022-07-28T01:23:43.053Z,996.41
2022-07-28T01:23:53.572Z,996.40
2022-07-28T01:24:04.076Z,996.40
2022-07-28T01:24:15.180Z,996.40
2022-07-28T01:24:25.098Z,996.39
2022-07-28T01:24:35.617Z,996.39
2022-07-28T01:24:46.153Z,996.39
2022-07-28T01:24:56.633Z,996.38
2022-07-28T01:25:07.167Z,996.38
2022-07-28T01:25:17.653Z,996.38
2022-07-28T01:25:28.169Z,996.38
2022-07-28T01:25:38.682Z,996.37
2022-07-28T01:25:49.200Z,996.37
2022-07-28T01:25:59.706Z,996.37
2022-07-28T01:26:10.215Z,996.37
2022-07-28T01:26:20.728Z,996.37
2022-07-28T01:26:31.242Z,996.36
2022-07-28T01:26:41.753Z,996.36
2022-07-28T01:26:52.266Z,996.36
2022-07-28T01:27:02.778Z,996.35
2022-07-28T01:27:13.285Z,996.35
2022-07-28T01:27:23.812Z,996.34
2022-07-28T01:27:34.311Z,996.34
2022-07-28T01:27:44.826Z,996.34
2022-07-28T01:27:55.331Z,996.34
2022-07-28T01:28:05.851Z,996.33
2022-07-28T01:28:16.384Z,996.33
2022-07-28T01:28:26.876Z,996.33
2022-07-28T01:28:37.389Z,996.32
2022-07-28T01:28:47.891Z,996.33
2022-07-28T01:28:58.405Z,996.32
2022-07-28T01:29:08.914Z,996.32
2022-07-28T01:29:19.424Z,996.32
2022-07-28T01:29:29.938Z,996.32
2022-07-28T01:29:40.453Z,996.32
2022-07-28T01:29:50.966Z,996.32
2022-07-28T01:30:01.478Z,996.32
2022-07-28T01:30:11.996Z,996.31
2022-07-28T01:30:22.507Z,996.31
2022-07-28T01:30:34.053Z,996.32
2022-07-28T01:30:43.639Z,996.32
2022-07-28T01:30:54.113Z,996.32
2022-07-28T01:31:04.645Z,996.32
2022-07-28T01:31:15.144Z,996.33
2022-07-28T01:31:25.660Z,996.33
2022-07-28T01:31:36.178Z,996.33
2022-07-28T01:31:46.637Z,996.33
2022-07-28T01:31:57.132Z,996.33
2022-07-28T01:32:07.637Z,996.33
2022-07-28T01:32:18.161Z,996.33
2022-07-28T01:32:28.674Z,996.33
2022-07-28T01:32:39.178Z,996.32
2022-07-28T01:32:49.690Z,996.33
2022-07-28T01:33:00.206Z,996.32
2022-07-28T01:33:10.726Z,996.33
2022-07-28T01:33:21.233Z,996.33
2022-07-28T01:33:31.746Z,996.33
2022-07-28T01:33:42.252Z,996.33
2022-07-28T01:33:52.767Z,996.33
2022-07-28T01:34:03.278Z,996.33
2022-07-28T01:34:14.182Z,996.34
2022-07-28T01:34:24.305Z,996.34
2022-07-28T01:34:34.819Z,996.34
2022-07-28T01:34:45.325Z,996.34
2022-07-28T01:34:55.847Z,996.34
2022-07-28T01:35:06.352Z,996.34
2022-07-28T01:35:16.870Z,996.34
2022-07-28T01:35:27.391Z,996.34
2022-07-28T01:35:37.903Z,996.34
2022-07-28T01:35:48.409Z,996.34
2022-07-28T01:35:58.918Z,996.35
2022-07-28T01:36:09.429Z,996.35
2022-07-28T01:36:19.939Z,996.35
2022-07-28T01:36:30.455Z,996.36
2022-07-28T01:36:40.991Z,996.35
2022-07-28T01:36:51.481Z,996.36
2022-07-28T01:37:01.988Z,996.36
2022-07-28T01:37:12.545Z,996.36
2022-07-28T01:37:23.011Z,996.36
2022-07-28T01:37:33.528Z,996.36
2022-07-28T01:37:44.037Z,996.36
2022-07-28T01:37:54.548Z,996.36
2022-07-28T01:38:05.065Z,996.36
2022-07-28T01:38:15.564Z,996.36
2022-07-28T01:38:26.085Z,996.36
2022-07-28T01:38:36.594Z,996.36
2022-07-28T01:38:47.116Z,996.36
2022-07-28T01:38:57.616Z,996.36
2022-07-28T01:39:08.133Z,996.36
2022-07-28T01:39:18.642Z,996.36
2022-07-28T01:39:29.159Z,996.35
2022-07-28T01:39:39.699Z,996.35
2022-07-28T01:39:50.178Z,996.35
2022-07-28T01:40:00.691Z,996.35
2022-07-28T01:40:11.219Z,996.35
2022-07-28T01:40:21.712Z,996.34
2022-07-28T01:40:32.224Z,996.34
2022-07-28T01:40:42.740Z,996.33
2022-07-28T01:40:53.245Z,996.33
2022-07-28T01:41:03.760Z,996.33
2022-07-28T01:41:14.277Z,996.33
2022-07-28T01:41:24.798Z,996.32
2022-07-28T01:41:35.297Z,996.33
2022-07-28T01:41:45.812Z,996.32
2022-07-28T01:41:56.328Z,996.32
2022-07-28T01:42:06.831Z,996.32
2022-07-28T01:42:17.343Z,996.32
2022-07-28T01:42:27.854Z,996.32
2022-07-28T01:42:38.375Z,996.32
2022-07-28T01:42:48.886Z,996.31
2022-07-28T01:42:59.395Z,996.31
2022-07-28T01:43:12.376Z,996.31
2022-07-28T01:43:20.412Z,996.31
2022-07-28T01:43:30.944Z,996.31
2022-07-28T01:43:41.429Z,996.31
2022-07-28T01:43:51.955Z,996.31
2022-07-28T01:44:02.458Z,996.31
2022-07-28T01:44:13.326Z,996.30
2022-07-28T01:44:23.475Z,996.31
2022-07-28T01:44:33.986Z,996.30
2022-07-28T01:44:44.499Z,996.31
2022-07-28T01:44:55.011Z,996.31
2022-07-28T01:45:05.523Z,996.31
2022-07-28T01:45:16.032Z,996.31
2022-07-28T01:45:26.549Z,996.30
2022-07-28T01:45:37.104Z,996.31
2022-07-28T01:45:47.586Z,996.31
2022-07-28T01:45:58.219Z,996.31
2022-07-28T01:46:08.690Z,996.31
2022-07-28T01:46:19.259Z,996.31
2022-07-28T01:46:29.716Z,996.31
2022-07-28T01:46:40.229Z,996.31
2022-07-28T01:46:50.707Z,996.31
2022-07-28T01:47:01.161Z,996.32
2022-07-28T01:47:11.676Z,996.32
2022-07-28T01:47:22.183Z,996.32
2022-07-28T01:47:32.697Z,996.32
2022-07-28T01:47:43.217Z,996.32
2022-07-28T01:47:53.723Z,996.32
2022-07-28T01:48:04.266Z,996.32
2022-07-28T01:48:14.744Z,996.32
2022-07-28T01:48:25.256Z,996.32
2022-07-28T01:48:35.811Z,996.31
2022-07-28T01:48:46.324Z,996.32
2022-07-28T01:48:56.844Z,996.32
2022-07-28T01:49:07.360Z,996.31
2022-07-28T01:49:17.889Z,996.31
2022-07-28T01:49:28.331Z,996.31
2022-07-28T01:49:38.838Z,996.32
2022-07-28T01:49:49.350Z,996.32
2022-07-28T01:49:59.860Z,996.32
2022-07-28T01:50:10.379Z,996.32
2022-07-28T01:50:20.883Z,996.32
2022-07-28T01:50:31.403Z,996.31
2022-07-28T01:50:41.909Z,996.31
2022-07-28T01:50:52.420Z,996.31
2022-07-28T01:51:02.931Z,996.32
2022-07-28T01:51:13.444Z,996.31
2022-07-28T01:51:23.954Z,996.31
2022-07-28T01:51:34.471Z,996.31
2022-07-28T01:51:44.988Z,996.31
2022-07-28T01:51:55.500Z,996.31
2022-07-28T01:52:06.008Z,996.30
2022-07-28T01:52:16.517Z,996.30
2022-07-28T01:52:27.039Z,996.30
2022-07-28T01:52:37.544Z,996.29
2022-07-28T01:52:48.064Z,996.29
2022-07-28T01:52:58.571Z,996.29
2022-07-28T01:53:09.099Z,996.28
2022-07-28T01:53:19.590Z,996.28
2022-07-28T01:53:30.112Z,996.28
2022-07-28T01:53:40.619Z,996.28
2022-07-28T01:53:51.129Z,996.27
2022-07-28T01:54:01.637Z,996.27
2022-07-28T01:54:12.576Z,996.27
2022-07-28T01:54:22.672Z,996.27
2022-07-28T01:54:33.209Z,996.26
2022-07-28T01:54:43.694Z,996.26
2022-07-28T01:54:54.198Z,996.26
2022-07-28T01:55:04.708Z,996.26
2022-07-28T01:55:15.226Z,996.25
2022-07-28T01:55:25.730Z,996.25
2022-07-28T01:55:36.242Z,996.25
2022-07-28T01:55:46.757Z,996.24
2022-07-28T01:55:57.274Z,996.24
2022-07-28T01:56:07.777Z,996.24
2022-07-28T01:56:18.293Z,996.24
2022-07-28T01:56:28.813Z,996.23
2022-07-28T01:56:39.316Z,996.23
2022-07-28T01:56:49.825Z,996.23
2022-07-28T01:57:00.337Z,996.23
2022-07-28T01:57:10.857Z,996.23
2022-07-28T01:57:21.358Z,996.23
2022-07-28T01:57:31.873Z,996.23
2022-07-28T01:57:42.385Z,996.23
2022-07-28T01:57:52.899Z,996.23
2022-07-28T01:58:03.414Z,996.23
2022-07-28T01:58:13.925Z,996.23
2022-07-28T01:58:24.430Z,996.23
2022-07-28T01:58:34.946Z,996.23
2022-07-28T01:58:45.458Z,996.23
2022-07-28T01:58:55.971Z,996.23
2022-07-28T01:59:06.483Z,996.23
2022-07-28T01:59:17.001Z,996.23
2022-07-28T01:59:27.540Z,996.23
2022-07-28T01:59:38.026Z,996.23
2022-07-28T01:59:48.537Z,996.23
2022-07-28T01:59:59.042Z,996.23
2022-07-28T02:00:09.553Z,996.23
2022-07-28T02:00:20.060Z,996.23
2022-07-28T02:00:30.575Z,996.23
2022-07-28T02:00:41.088Z,996.22
2022-07-28T02:00:51.604Z,996.23
2022-07-28T02:01:02.114Z,996.23
2022-07-28T02:01:12.671Z,996.23
2022-07-28T02:01:23.160Z,996.23
2022-07-28T02:01:33.710Z,996.23
2022-07-28T02:01:44.248Z,996.23
2022-07-28T02:01:54.822Z,996.23
2022-07-28T02:02:05.239Z,996.22
2022-07-28T02:02:15.698Z,996.22
2022-07-28T02:02:26.204Z,996.22
2022-07-28T02:02:36.717Z,996.22
2022-07-28T02:02:47.235Z,996.22
2022-07-28T02:02:57.745Z,996.22
2022-07-28T02:03:08.252Z,996.21
2022-07-28T02:03:18.754Z,996.21
2022-07-28T02:03:29.286Z,996.21
2022-07-28T02:03:39.781Z,996.20
2022-07-28T02:03:50.293Z,996.20
2022-07-28T02:04:00.801Z,996.20
2022-07-28T02:04:11.756Z,996.19
2022-07-28T02:04:21.851Z,996.20
2022-07-28T02:04:32.392Z,996.19
2022-07-28T02:04:42.967Z,996.19
2022-07-28T02:04:53.413Z,996.19
2022-07-28T02:05:03.929Z,996.19
2022-07-28T02:05:14.445Z,996.19
2022-07-28T02:05:24.928Z,996.18
2022-07-28T02:05:35.541Z,996.19
2022-07-28T02:05:45.907Z,996.18
2022-07-28T02:05:56.435Z,996.18
2022-07-28T02:06:06.936Z,996.18
2022-07-28T02:06:17.451Z,996.18
2022-07-28T02:06:27.960Z,996.18
2022-07-28T02:06:38.475Z,996.18
2022-07-28T02:06:48.981Z,996.18
2022-07-28T02:06:59.497Z,996.18
2022-07-28T02:07:10.005Z,996.18
2022-07-28T02:07:20.522Z,996.18
2022-07-28T02:07:31.030Z,996.18
2022-07-28T02:07:41.547Z,996.17
2022-07-28T02:07:52.056Z,996.17
2022-07-28T02:08:02.564Z,996.17
2022-07-28T02:08:13.080Z,996.17
2022-07-28T02:08:23.580Z,996.17
2022-07-28T02:08:34.093Z,996.16
2022-07-28T02:08:44.603Z,996.16
2022-07-28T02:08:55.118Z,996.16
2022-07-28T02:09:05.631Z,996.16
2022-07-28T02:09:16.157Z,996.16
2022-07-28T02:09:26.650Z,996.15
2022-07-28T02:09:37.163Z,996.15
2022-07-28T02:09:47.678Z,996.15
2022-07-28T02:09:58.178Z,996.15
2022-07-28T02:10:08.696Z,996.14
2022-07-28T02:10:19.217Z,996.14
2022-07-28T02:10:29.719Z,996.14
2022-07-28T02:10:40.228Z,996.14
2022-07-28T02:10:50.771Z,996.13
2022-07-28T02:11:01.271Z,996.13
2022-07-28T02:11:11.766Z,996.13